Time;durP1;ratioP1;P1;durP2;ratioP2;P2;SDS_P1;SDS_P2;PMS_P1;PMS_P2;Temp;Humidity;BMP_temperature;BMP_pressure;BME280_temperature;BME280_humidity;BME280_pressure;Samples;Min_cycle;Max_cycle;Signal;HPM_P1;HPM_P2
2023/01/01 00:02:12;;;;;;;2.47;0.70;;;;;;;10.70;100.00;100711.16;4965032;28;20050;-85
2023/01/01 00:04:41;;;;;;;1.75;0.60;;;;;;;10.72;100.00;100717.25;4971134;28;20054;-84
2023/01/01 00:07:11;;;;;;;1.58;0.50;;;;;;;10.71;100.00;100714.59;4964905;28;20584;-84
2023/01/01 00:12:25;;;;;;;1.05;0.47;;;;;;;10.60;100.00;100717.75;4975131;28;20057;-85
2023/01/01 00:14:53;;;;;;;1.05;0.50;;;;;;;10.58;100.00;100728.88;4968808;28;20062;-82
2023/01/01 00:17:22;;;;;;;3.35;0.50;;;;;;;10.58;100.00;100723.72;4972249;28;20216;-86
2023/01/01 00:19:50;;;;;;;1.50;0.30;;;;;;;10.54;100.00;100721.88;4964668;28;20055;-87
2023/01/01 00:22:21;;;;;;;15.13;4.93;;;;;;;10.49;100.00;100724.34;4979614;28;20119;-87
2023/01/01 00:24:50;;;;;;;7.28;3.17;;;;;;;10.47;100.00;100721.69;4973223;28;20895;-87
2023/01/01 00:27:19;;;;;;;4.75;1.75;;;;;;;10.48;100.00;100727.75;4974080;28;20658;-87
2023/01/01 00:29:47;;;;;;;2.83;1.02;;;;;;;10.48;100.00;100725.16;4979247;28;20051;-83
2023/01/01 00:32:16;;;;;;;1.65;0.75;;;;;;;10.50;100.00;100730.38;4969879;28;20054;-87
2023/01/01 00:34:45;;;;;;;1.17;0.50;;;;;;;10.48;100.00;100732.91;4972463;28;20043;-86
2023/01/01 00:37:18;;;;;;;1.02;0.60;;;;;;;10.47;100.00;100738.94;4970514;28;20039;-82
2023/01/01 00:39:48;;;;;;;1.70;0.40;;;;;;;10.46;100.00;100742.34;4971106;28;20676;-86
2023/01/01 00:42:17;;;;;;;0.75;0.40;;;;;;;10.43;100.00;100739.69;4969380;28;20051;-81
2023/01/01 00:44:46;;;;;;;0.70;0.40;;;;;;;10.40;100.00;100745.63;4971819;28;20716;-83
2023/01/01 00:47:15;;;;;;;0.63;0.43;;;;;;;10.37;100.00;100744.66;4966834;28;20047;-81
2023/01/01 00:49:43;;;;;;;0.95;0.40;;;;;;;10.32;100.00;100751.41;4965221;28;20061;-81
2023/01/01 00:52:12;;;;;;;1.20;0.57;;;;;;;10.27;100.00;100759.84;4968136;28;20051;-81
2023/01/01 00:54:47;;;;;;;1.58;0.40;;;;;;;10.23;100.00;100762.31;4975686;28;20723;-80
2023/01/01 00:57:18;;;;;;;0.50;0.30;;;;;;;10.18;100.00;100767.34;4970235;28;20070;-79
2023/01/01 00:59:46;;;;;;;3.17;0.68;;;;;;;10.14;100.00;100768.06;4964119;28;20059;-80
2023/01/01 01:02:15;;;;;;;3.28;0.68;;;;;;;10.12;100.00;100769.72;4972218;28;20051;-78
2023/01/01 01:04:43;;;;;;;0.85;0.60;;;;;;;10.07;100.00;100772.16;4965004;28;20058;-73
2023/01/01 01:07:12;;;;;;;4.68;0.88;;;;;;;10.04;100.00;100781.53;4972137;28;20070;-75
2023/01/01 01:09:40;;;;;;;1.42;0.30;;;;;;;9.99;100.00;100788.28;4967282;28;20153;-76
2023/01/01 01:12:09;;;;;;;1.67;0.60;;;;;;;9.95;100.00;100789.00;4966173;28;20563;-74
2023/01/01 01:14:39;;;;;;;1.45;0.55;;;;;;;9.92;100.00;100794.03;4971706;28;20051;-75
2023/01/01 01:17:08;;;;;;;0.90;0.50;;;;;;;9.89;100.00;100793.97;4973921;28;20058;-75
2023/01/01 01:19:36;;;;;;;0.90;0.43;;;;;;;9.85;100.00;100800.75;4972394;28;20047;-72
2023/01/01 01:22:05;;;;;;;1.45;0.60;;;;;;;9.82;100.00;100801.50;4968094;28;20477;-74
2023/01/01 01:24:33;;;;;;;1.10;0.60;;;;;;;9.78;100.00;100804.84;4969023;28;20176;-75
2023/01/01 01:27:02;;;;;;;2.47;1.33;;;;;;;9.78;100.00;100815.16;4973654;28;20038;-75
2023/01/01 01:29:30;;;;;;;3.72;1.35;;;;;;;9.79;100.00;100816.91;4970713;28;20042;-76
2023/01/01 01:32:00;;;;;;;2.55;1.00;;;;;;;9.81;100.00;100812.69;4971861;28;20061;-76
2023/01/01 01:34:29;;;;;;;2.75;1.33;;;;;;;9.78;100.00;100812.59;4973464;28;20050;-77
2023/01/01 01:36:58;;;;;;;3.53;1.90;;;;;;;9.75;100.00;100809.88;4970527;28;20043;-80
2023/01/01 01:39:26;;;;;;;3.17;1.85;;;;;;;9.76;100.00;100821.13;4970022;28;20136;-82
2023/01/01 01:41:55;;;;;;;7.65;2.10;;;;;;;9.76;100.00;100818.53;4968033;28;20055;-77
2023/01/01 01:44:53;;;;;;;4.55;2.10;;;;;;;9.75;100.00;100815.03;4972879;28;20412;-76
2023/01/01 01:47:27;;;;;;;4.15;1.60;;;;;;;9.72;100.00;100814.97;4972143;28;20048;-76
2023/01/01 01:50:02;;;;;;;5.20;2.15;;;;;;;9.73;100.00;100823.56;4967957;28;20055;-76
2023/01/01 01:52:34;;;;;;;5.18;2.40;;;;;;;9.70;100.00;100821.78;4971812;28;20437;-76
2023/01/01 01:55:06;;;;;;;5.80;1.88;;;;;;;9.69;100.00;100832.94;4951701;28;20043;-75
2023/01/01 01:57:35;;;;;;;4.68;2.03;;;;;;;9.69;100.00;100835.53;4952159;28;20448;-76
2023/01/01 02:00:04;;;;;;;3.45;1.70;;;;;;;9.70;100.00;100846.75;4951554;28;20062;-75
2023/01/01 02:02:39;;;;;;;4.70;2.05;;;;;;;9.69;100.00;100845.88;4947295;28;20047;-76
2023/01/01 02:05:08;;;;;;;4.43;2.47;;;;;;;9.63;100.00;100833.59;4949656;28;20047;-74
2023/01/01 02:07:44;;;;;;;3.92;2.10;;;;;;;9.61;100.00;100835.25;4950152;28;20058;-76
2023/01/01 02:10:13;;;;;;;3.05;2.15;;;;;;;9.56;100.00;100833.34;4949819;28;20051;-75
2023/01/01 02:12:41;;;;;;;4.07;2.35;;;;;;;9.51;100.00;100830.59;4944571;28;20497;-74
2023/01/01 02:15:11;;;;;;;8.48;2.70;;;;;;;9.48;100.00;100829.59;4948159;28;20054;-75
2023/01/01 02:17:53;;;;;;;4.50;2.33;;;;;;;9.48;100.00;100837.34;4950593;28;20039;-75
2023/01/01 02:20:42;;;;;;;4.60;1.70;;;;;;;9.47;100.00;100838.19;4952507;28;20055;-75
2023/01/01 02:23:35;;;;;;;4.93;2.05;;;;;;;9.46;100.00;100846.75;4951719;28;21125;-77
2023/01/01 02:26:23;;;;;;;4.28;2.40;;;;;;;9.44;100.00;100850.16;4957105;28;20054;-75
2023/01/01 02:29:03;;;;;;;7.25;2.30;;;;;;;9.42;100.00;100851.81;4949121;28;20138;-77
2023/01/01 02:31:39;;;;;;;4.93;2.65;;;;;;;9.41;100.00;100854.34;4946319;28;20118;-77
2023/01/01 02:34:11;;;;;;;4.63;2.60;;;;;;;9.38;100.00;100864.56;4955581;28;20051;-77
2023/01/01 02:36:44;;;;;;;5.38;2.63;;;;;;;9.35;100.00;100862.75;4956727;28;20414;-76
2023/01/01 02:39:16;;;;;;;5.88;3.20;;;;;;;9.33;100.00;100863.53;4949836;28;20710;-77
2023/01/01 02:41:49;;;;;;;7.95;3.80;;;;;;;9.29;100.00;100867.69;4948456;28;20505;-76
2023/01/01 02:44:21;;;;;;;9.13;5.25;;;;;;;9.25;100.00;100863.22;4955256;28;20529;-75
2023/01/01 02:46:49;;;;;;;;;;;;;;;9.20;100.00;100869.94;4950458;28;20253;-75
2023/01/01 02:49:18;;;;;;;8.45;5.43;;;;;;;9.16;100.00;100870.63;4958015;28;19929;-76
2023/01/01 02:52:02;;;;;;;8.02;4.97;;;;;;;9.12;100.00;100873.94;4953100;28;20054;-76
2023/01/01 02:54:38;;;;;;;9.27;5.00;;;;;;;9.06;100.00;100871.13;4968921;28;20137;-75
2023/01/01 02:57:14;;;;;;;8.90;5.20;;;;;;;9.01;100.00;100884.72;4966944;28;20551;-76
2023/01/01 03:00:23;;;;;;;11.20;4.72;;;;;;;8.97;100.00;100888.00;4959176;28;20051;-76
2023/01/01 03:03:20;;;;;;;33.88;18.52;;;;;;;8.94;100.00;100895.66;4966585;28;20086;-74
2023/01/01 03:08:50;;;;;;;7.88;5.05;;;;;;;8.87;100.00;100898.81;4971088;28;20129;-75
2023/01/01 03:11:21;;;;;;;106.45;53.30;;;;;;;8.86;100.00;100902.19;4965631;28;20054;-76
2023/01/01 03:13:56;;;;;;;10.25;6.13;;;;;;;8.85;100.00;100903.03;4969373;28;20031;-74
2023/01/01 03:16:32;;;;;;;23.65;13.95;;;;;;;8.86;100.00;100906.50;4965120;28;20046;-74
2023/01/01 03:19:12;;;;;;;11.10;6.35;;;;;;;8.85;100.00;100905.63;4963956;28;20046;-75
2023/01/01 03:21:46;;;;;;;9.13;5.63;;;;;;;8.85;100.00;100910.78;4959658;28;20054;-75
2023/01/01 03:24:21;;;;;;;10.18;6.43;;;;;;;8.86;100.00;100915.09;4967734;28;20051;-77
2023/01/01 03:26:54;;;;;;;12.25;5.10;;;;;;;8.85;100.00;100913.34;4964440;28;20058;-77
2023/01/01 03:29:25;;;;;;;10.80;5.57;;;;;;;8.82;100.00;100913.25;4960866;28;20142;-78
2023/01/01 03:31:59;;;;;;;8.77;4.25;;;;;;;8.82;100.00;100915.84;4962671;28;20507;-76
2023/01/01 03:34:35;;;;;;;8.95;3.97;;;;;;;8.80;100.00;100920.06;4948756;28;20516;-76
2023/01/01 03:37:08;;;;;;;7.97;4.30;;;;;;;8.76;100.00;100915.59;4964740;28;20416;-76
2023/01/01 03:39:40;;;;;;;6.75;3.63;;;;;;;8.73;100.00;100923.22;4967507;28;20058;-76
2023/01/01 03:42:16;;;;;;;13.23;4.30;;;;;;;8.71;100.00;100915.41;4969536;28;20055;-76
2023/01/01 03:44:49;;;;;;;8.95;3.92;;;;;;;8.68;100.00;100922.13;4965791;28;20351;-76
2023/01/01 03:47:20;;;;;;;7.22;4.00;;;;;;;8.64;100.00;100925.44;4968978;28;20043;-76
2023/01/01 03:49:49;;;;;;;10.05;4.53;;;;;;;8.63;100.00;100924.53;4967950;28;20424;-76
2023/01/01 03:52:31;;;;;;;10.38;4.30;;;;;;;8.60;100.00;100917.53;4963608;28;20405;-76
2023/01/01 03:55:05;;;;;;;8.70;3.90;;;;;;;8.59;100.00;100923.53;4970265;28;20053;-76
2023/01/01 03:57:42;;;;;;;7.88;4.45;;;;;;;8.58;100.00;100929.50;4964027;28;20575;-76
2023/01/01 04:00:15;;;;;;;5.72;3.92;;;;;;;8.56;100.00;100935.41;4965147;28;20046;-76
2023/01/01 04:02:52;;;;;;;8.52;4.13;;;;;;;8.53;100.00;100938.75;4967190;28;20488;-76
2023/01/01 04:05:22;;;;;;;9.63;4.57;;;;;;;8.47;100.00;100932.47;4970513;28;20059;-76
2023/01/01 04:07:58;;;;;;;9.35;3.75;;;;;;;8.43;100.00;100944.38;4966113;28;20055;-76
2023/01/01 04:10:30;;;;;;;5.53;3.53;;;;;;;8.42;100.00;100952.91;4964904;28;20532;-76
2023/01/01 04:12:59;;;;;;;4.75;3.33;;;;;;;8.40;100.00;100949.38;4967725;28;20608;-76
2023/01/01 04:15:29;;;;;;;7.88;3.90;;;;;;;8.37;100.00;100955.25;4968375;28;20050;-76
2023/01/01 04:17:59;;;;;;;8.00;3.55;;;;;;;8.36;100.00;100957.75;4966297;28;20050;-76
2023/01/01 04:20:27;;;;;;;8.50;3.35;;;;;;;8.33;100.00;100962.81;4954079;28;20043;-76
2023/01/01 04:22:57;;;;;;;8.38;4.05;;;;;;;8.27;100.00;100966.03;4959372;28;20413;-76
2023/01/01 04:25:26;;;;;;;6.82;3.70;;;;;;;8.27;100.00;100972.84;4963348;28;20054;-76
2023/01/01 04:27:55;;;;;;;6.50;3.78;;;;;;;8.25;100.00;100970.22;4968760;28;20081;-76
2023/01/01 04:30:23;;;;;;;5.93;3.28;;;;;;;8.25;100.00;100979.66;4957876;28;20635;-76
2023/01/01 04:32:52;;;;;;;5.05;3.35;;;;;;;8.26;100.00;100986.56;4961255;28;20511;-76
2023/01/01 04:35:22;;;;;;;8.88;3.42;;;;;;;8.25;100.00;100984.81;4959756;28;20050;-76
2023/01/01 04:37:51;;;;;;;8.65;3.80;;;;;;;8.24;100.00;100989.06;4963226;28;20105;-76
2023/01/01 04:40:20;;;;;;;6.35;3.47;;;;;;;8.25;100.00;101000.28;4967511;28;20042;-76
2023/01/01 04:42:48;;;;;;;6.68;4.20;;;;;;;8.24;100.00;100998.50;4963325;28;20050;-76
2023/01/01 04:45:17;;;;;;;5.63;3.20;;;;;;;8.22;100.00;101010.44;4966875;28;20603;-76
2023/01/01 04:47:46;;;;;;;7.50;3.58;;;;;;;8.22;100.00;101010.44;4967153;28;20411;-76
2023/01/01 04:50:14;;;;;;;5.38;3.90;;;;;;;8.22;100.00;101015.59;4971121;28;20054;-76
2023/01/01 04:52:45;;;;;;;8.63;4.40;;;;;;;8.22;100.00;101028.50;4969491;28;20055;-76
2023/01/01 04:55:13;;;;;;;9.07;4.30;;;;;;;8.22;100.00;101031.06;4974736;28;20508;-76
2023/01/01 04:57:42;;;;;;;10.57;4.63;;;;;;;8.22;100.00;101031.06;4972837;28;20046;-76
2023/01/01 05:00:12;;;;;;;7.47;4.93;;;;;;;8.22;100.00;101038.81;4975191;28;20054;-76
2023/01/01 05:02:41;;;;;;;16.38;6.15;;;;;;;8.21;100.00;101042.22;4971497;28;20583;-76
2023/01/01 05:05:10;;;;;;;17.48;6.40;;;;;;;8.22;100.00;101041.38;4978948;28;20409;-76
2023/01/01 05:07:38;;;;;;;14.13;5.60;;;;;;;8.21;100.00;101034.47;4971439;28;20098;-76
2023/01/01 05:10:09;;;;;;;10.65;5.00;;;;;;;8.21;100.00;101037.06;4973306;28;20503;-75
2023/01/01 05:12:38;;;;;;;11.48;4.43;;;;;;;8.21;100.00;101044.78;4973010;28;20051;-76
2023/01/01 05:15:07;;;;;;;7.28;3.17;;;;;;;8.20;100.00;101049.06;4971394;28;20055;-75
2023/01/01 05:17:36;;;;;;;5.68;3.20;;;;;;;8.18;100.00;101049.00;4971485;28;20444;-75
2023/01/01 05:20:05;;;;;;;6.13;3.15;;;;;;;8.20;100.00;101056.78;4973415;28;20050;-76
2023/01/01 05:22:34;;;;;;;7.50;4.18;;;;;;;8.17;100.00;101054.94;4970593;28;20062;-76
2023/01/01 05:25:03;;;;;;;9.52;4.53;;;;;;;8.17;100.00;101052.38;4974227;28;20055;-76
2023/01/01 05:27:33;;;;;;;6.40;4.22;;;;;;;8.16;100.00;101057.47;4969176;28;20424;-75
2023/01/01 05:30:02;;;;;;;10.20;5.40;;;;;;;8.16;100.00;101060.91;4973153;28;20058;-76
2023/01/01 05:32:30;;;;;;;9.18;4.65;;;;;;;8.15;100.00;101071.16;4975245;28;20054;-76
2023/01/01 05:34:59;;;;;;;10.70;3.85;;;;;;;8.14;100.00;101075.44;4974172;28;20070;-76
2023/01/01 05:37:27;;;;;;;10.73;4.75;;;;;;;8.14;100.00;101067.69;4975642;28;20515;-76
2023/01/01 05:39:56;;;;;;;9.93;3.83;;;;;;;8.12;100.00;101077.06;4974329;28;20042;-76
2023/01/01 05:42:25;;;;;;;6.70;3.50;;;;;;;8.10;100.00;101081.25;4974435;28;20043;-76
2023/01/01 05:44:55;;;;;;;7.40;3.67;;;;;;;8.07;100.00;101082.84;4974572;28;20039;-76
2023/01/01 05:47:24;;;;;;;9.23;4.32;;;;;;;8.03;100.00;101086.97;4975180;28;20514;-76
2023/01/01 05:49:53;;;;;;;7.15;4.22;;;;;;;8.00;100.00;101086.84;4973446;28;20054;-76
2023/01/01 05:52:21;;;;;;;10.27;4.18;;;;;;;8.00;100.00;101091.97;4971619;28;20456;-76
2023/01/01 05:54:50;;;;;;;7.63;4.40;;;;;;;7.96;100.00;101085.78;4971444;28;20366;-76
2023/01/01 05:57:18;;;;;;;9.82;4.20;;;;;;;7.94;100.00;101086.53;4975511;28;20416;-76
2023/01/01 05:59:47;;;;;;;9.70;4.55;;;;;;;7.92;100.00;101086.47;4970148;28;20066;-76
2023/01/01 06:02:17;;;;;;;8.75;3.63;;;;;;;7.89;100.00;101083.75;4969594;28;20054;-76
2023/01/01 06:04:46;;;;;;;7.43;3.40;;;;;;;7.89;100.00;101085.47;4965096;28;20531;-75
2023/01/01 06:07:15;;;;;;;7.43;3.53;;;;;;;7.84;100.00;101085.25;4966670;28;20053;-76
2023/01/01 06:09:43;;;;;;;6.45;3.42;;;;;;;7.81;100.00;101084.22;4970362;28;20409;-75
2023/01/01 06:12:12;;;;;;;7.75;3.88;;;;;;;7.78;100.00;101099.53;4967125;28;20058;-76
2023/01/01 06:14:41;;;;;;;11.57;3.40;;;;;;;7.74;100.00;101114.88;4968972;28;20061;-76
2023/01/01 06:17:09;;;;;;;4.82;2.72;;;;;;;7.71;100.00;101109.56;4972494;28;20109;-76
2023/01/01 06:19:40;;;;;;;5.57;2.72;;;;;;;7.69;100.00;101111.16;4977067;28;20046;-76
2023/01/01 06:22:09;;;;;;;3.58;2.55;;;;;;;7.67;100.00;101111.91;4968682;28;20407;-76
2023/01/01 06:24:37;;;;;;;4.60;2.90;;;;;;;7.64;100.00;101114.34;4964985;28;20054;-76
2023/01/01 06:27:06;;;;;;;5.20;3.13;;;;;;;7.61;100.00;101112.53;4967460;28;20527;-76
2023/01/01 06:29:34;;;;;;;8.63;3.50;;;;;;;7.59;100.00;101114.13;4967097;28;20047;-76
2023/01/01 06:32:03;;;;;;;5.55;3.92;;;;;;;7.57;100.00;101120.91;4969165;28;20070;-76
2023/01/01 06:34:31;;;;;;;7.25;3.97;;;;;;;7.56;100.00;101124.31;4967019;28;20674;-76
2023/01/01 06:37:02;;;;;;;6.90;3.90;;;;;;;7.53;100.00;101119.88;4968982;28;20043;-76
2023/01/01 06:39:30;;;;;;;10.68;4.88;;;;;;;7.52;100.00;101117.25;4968361;28;20047;-75
2023/01/01 06:41:59;;;;;;;13.93;6.32;;;;;;;7.49;100.00;101111.91;4969882;28;20065;-75
2023/01/01 06:44:28;;;;;;;14.40;5.68;;;;;;;7.47;100.00;101123.88;4971396;28;20090;-76
2023/01/01 06:46:57;;;;;;;10.75;5.72;;;;;;;7.45;100.00;101122.91;4973688;28;20267;-75
2023/01/01 06:49:25;;;;;;;11.00;5.13;;;;;;;7.40;100.00;101132.97;4970323;28;20517;-76
2023/01/01 06:51:54;;;;;;;8.70;4.75;;;;;;;7.34;100.00;101138.69;4966867;28;20061;-76
2023/01/01 06:54:24;;;;;;;6.78;3.53;;;;;;;7.31;100.00;101133.41;4971754;28;20149;-76
2023/01/01 06:56:53;;;;;;;7.40;2.97;;;;;;;7.28;100.00;101135.84;4971464;28;20047;-75
2023/01/01 06:59:22;;;;;;;7.22;3.22;;;;;;;7.21;100.00;101128.59;4971736;28;20063;-76
2023/01/01 07:01:50;;;;;;;7.82;2.97;;;;;;;7.13;100.00;101128.25;4968145;28;20081;-75
2023/01/01 07:04:19;;;;;;;6.75;2.83;;;;;;;7.10;100.00;101132.34;4972483;28;20513;-75
2023/01/01 07:06:48;;;;;;;3.78;2.45;;;;;;;7.05;100.00;101131.25;4969791;28;20063;-76
2023/01/01 07:09:16;;;;;;;2.63;1.95;;;;;;;7.02;100.00;101138.81;4969092;28;20552;-75
2023/01/01 07:11:47;;;;;;;9.60;2.33;;;;;;;6.99;100.00;101142.13;4967057;28;20452;-75
2023/01/01 07:14:15;;;;;;;3.17;2.05;;;;;;;6.93;100.00;101137.53;4968772;28;20054;-76
2023/01/01 07:16:44;;;;;;;5.50;2.42;;;;;;;6.88;100.00;101136.44;4966779;28;20053;-76
2023/01/01 07:19:12;;;;;;;2.50;1.85;;;;;;;6.81;100.00;101138.63;4963750;28;20043;-76
2023/01/01 07:21:44;;;;;;;2.38;1.52;;;;;;;6.74;100.00;101142.56;4967330;28;20047;-75
2023/01/01 07:24:14;;;;;;;2.10;1.33;;;;;;;6.69;100.00;101144.91;4964228;28;20635;-75
2023/01/01 07:26:43;;;;;;;2.00;1.45;;;;;;;6.65;100.00;101149.81;4971002;28;20057;-76
2023/01/01 07:29:14;;;;;;;3.88;1.30;;;;;;;6.59;100.00;101136.63;4968213;28;20061;-76
2023/01/01 07:31:44;;;;;;;2.75;1.58;;;;;;;6.54;100.00;101138.09;4963604;28;20055;-75
2023/01/01 07:34:15;;;;;;;2.17;1.30;;;;;;;6.49;100.00;101136.16;4965109;28;20050;-76
2023/01/01 07:36:44;;;;;;;2.92;1.75;;;;;;;6.47;100.00;101132.63;4963374;28;20065;-76
2023/01/01 07:39:13;;;;;;;3.55;1.30;;;;;;;6.41;100.00;101129.72;4965953;28;20070;-76
2023/01/01 07:41:41;;;;;;;1.55;1.17;;;;;;;6.40;100.00;101145.97;4969590;28;20051;-76
2023/01/01 07:44:10;;;;;;;2.33;1.42;;;;;;;6.37;100.00;101130.38;4970365;28;20062;-76
2023/01/01 07:46:40;;;;;;;2.67;1.20;;;;;;;6.30;100.00;101136.00;4964258;28;20440;-76
2023/01/01 07:49:09;;;;;;;2.72;1.20;;;;;;;6.29;100.00;101139.38;4968039;28;20051;-77
2023/01/01 07:51:37;;;;;;;3.15;1.08;;;;;;;6.23;100.00;101137.38;4963830;28;20146;-76
2023/01/01 07:54:06;;;;;;;5.32;1.65;;;;;;;6.18;100.00;101146.50;4965519;28;20047;-76
2023/01/01 07:56:35;;;;;;;1.95;1.10;;;;;;;6.11;100.00;101139.28;4968417;28;20525;-76
2023/01/01 07:59:04;;;;;;;1.17;1.05;;;;;;;6.05;100.00;101132.13;4971852;28;20038;-76
2023/01/01 08:01:35;;;;;;;2.13;1.10;;;;;;;6.02;100.00;101142.22;4968605;28;20043;-76
2023/01/01 08:04:06;;;;;;;1.20;0.82;;;;;;;5.98;100.00;101144.53;4970720;28;20054;-77
2023/01/01 08:06:34;;;;;;;1.15;0.82;;;;;;;5.92;100.00;101147.66;4968201;28;20468;-76
2023/01/01 08:09:03;;;;;;;1.70;1.05;;;;;;;5.90;100.00;101144.09;4966626;28;20043;-76
2023/01/01 08:11:31;;;;;;;1.00;0.90;;;;;;;5.87;100.00;101136.25;4968664;28;20560;-76
2023/01/01 08:14:00;;;;;;;2.10;1.08;;;;;;;5.84;100.00;101136.06;4969740;28;20050;-75
2023/01/01 08:16:28;;;;;;;1.83;1.00;;;;;;;5.83;100.00;101139.44;4972978;28;20054;-75
2023/01/01 08:18:57;;;;;;;1.42;0.93;;;;;;;5.79;100.00;101142.63;4967722;28;20089;-76
2023/01/01 08:21:27;;;;;;;2.97;1.20;;;;;;;5.75;100.00;101146.72;4966921;28;20054;-76
2023/01/01 08:23:56;;;;;;;3.50;1.88;;;;;;;5.74;100.00;101144.06;4973790;28;20503;-76
2023/01/01 08:26:30;;;;;;;3.88;1.83;;;;;;;5.67;100.00;101159.13;4967689;28;20542;-76
2023/01/01 08:28:59;;;;;;;3.60;1.65;;;;;;;5.64;100.00;101158.09;4968611;28;20038;-76
2023/01/01 08:31:28;;;;;;;3.25;2.03;;;;;;;5.62;100.00;101154.56;4968106;28;20094;-76
2023/01/01 08:33:56;;;;;;;4.00;1.48;;;;;;;5.60;100.00;101157.03;4969245;28;20600;-75
2023/01/01 08:36:26;;;;;;;2.28;1.65;;;;;;;5.57;100.00;101164.56;4968397;28;20059;-75
2023/01/01 08:38:55;;;;;;;3.63;1.80;;;;;;;5.54;100.00;101164.38;4979466;28;20124;-74
2023/01/01 08:41:24;;;;;;;5.53;2.53;;;;;;;5.50;100.00;101165.03;4975167;28;20504;-74
2023/01/01 08:43:52;;;;;;;6.32;2.17;;;;;;;5.47;100.00;101169.97;4977056;28;20069;-74
2023/01/01 08:46:21;;;;;;;2.95;1.65;;;;;;;5.44;100.00;101175.81;4970402;28;20943;-74
2023/01/01 08:48:49;;;;;;;3.53;1.75;;;;;;;5.41;100.00;101174.75;4976307;28;20126;-75
2023/01/01 08:51:19;;;;;;;5.43;2.03;;;;;;;5.38;100.00;101174.56;4967651;28;20049;-75
2023/01/01 08:53:49;;;;;;;4.03;1.77;;;;;;;5.37;100.00;101173.69;4972796;28;20445;-76
2023/01/01 08:56:18;;;;;;;3.00;1.52;;;;;;;5.35;100.00;101174.41;4970525;28;20082;-75
2023/01/01 08:58:46;;;;;;;5.03;2.08;;;;;;;5.30;100.00;101166.44;4967095;28;20631;-74
2023/01/01 09:01:15;;;;;;;3.38;1.70;;;;;;;5.29;100.00;101179.19;4963743;28;20040;-74
2023/01/01 09:03:44;;;;;;;3.00;1.58;;;;;;;5.24;100.00;101177.25;4963700;28;20046;-74
2023/01/01 09:06:13;;;;;;;3.22;1.33;;;;;;;5.22;100.00;101175.38;4966260;28;20057;-73
2023/01/01 09:08:41;;;;;;;1.88;1.23;;;;;;;5.19;100.00;101183.78;4964391;28;20070;-74
2023/01/01 09:11:23;;;;;;;2.20;1.38;;;;;;;5.18;100.00;101187.16;4965084;28;20054;-74
2023/01/01 09:13:52;;;;;;;1.30;0.90;;;;;;;5.16;100.00;101188.75;4967179;28;20081;-73
2023/01/01 09:16:22;;;;;;;2.75;1.70;;;;;;;5.15;100.00;101192.09;4968326;28;20536;-73
2023/01/01 09:18:51;;;;;;;2.90;1.30;;;;;;;5.10;100.00;101184.94;4960971;28;20058;-73
2023/01/01 09:21:19;;;;;;;3.28;1.65;;;;;;;5.06;100.00;101196.69;4964667;28;20057;-73
2023/01/01 09:23:48;;;;;;;2.97;2.20;;;;;;;5.02;100.00;101203.31;4965403;28;20763;-72
2023/01/01 09:26:18;;;;;;;2.35;1.02;;;;;;;5.00;100.00;101201.47;4962517;28;20058;-73
2023/01/01 09:28:47;;;;;;;1.00;0.70;;;;;;;4.94;100.00;101206.22;4964239;28;20051;-74
2023/01/01 09:31:15;;;;;;;3.10;1.10;;;;;;;4.84;100.00;101204.81;4966910;28;20089;-73
2023/01/01 09:33:44;;;;;;;2.05;1.10;;;;;;;4.77;100.00;101208.66;4965175;28;20066;-74
2023/01/01 09:36:27;;;;;;;1.92;1.10;;;;;;;4.72;100.00;101211.72;4969795;28;20059;-74
2023/01/01 09:38:57;;;;;;;2.25;1.15;;;;;;;4.69;100.00;101224.38;4971433;28;20177;-74
2023/01/01 09:41:40;;;;;;;2.17;0.98;;;;;;;4.66;100.00;101227.66;4974091;28;20105;-74
2023/01/01 09:44:21;;;;;;;3.42;1.30;;;;;;;4.68;100.00;101226.06;4971723;28;20050;-73
2023/01/01 09:46:50;;;;;;;3.83;1.45;;;;;;;4.70;100.00;101219.34;4974160;28;20115;-73
2023/01/01 09:49:26;;;;;;;2.17;0.93;;;;;;;4.71;100.00;101228.81;4972736;28;20394;-74
2023/01/01 09:52:00;;;;;;;3.30;1.55;;;;;;;4.70;100.00;101219.34;4967899;28;20598;-74
2023/01/01 09:54:32;;;;;;;3.80;1.00;;;;;;;4.69;100.00;101220.13;4971401;28;20496;-74
2023/01/01 09:57:05;;;;;;;1.73;1.20;;;;;;;4.70;100.00;101216.78;4968726;28;20046;-74
2023/01/01 09:59:34;;;;;;;3.60;1.90;;;;;;;4.59;100.00;101207.56;4964978;28;20043;-74
2023/01/01 10:02:14;;;;;;;2.85;1.52;;;;;;;4.69;100.00;101225.25;4970671;28;20059;-74
2023/01/01 10:04:56;;;;;;;2.90;1.50;;;;;;;4.70;100.00;101224.47;4971326;28;20049;-74
2023/01/01 10:07:36;;;;;;;1.98;1.30;;;;;;;4.71;100.00;101231.38;4969842;28;20690;-73
2023/01/01 10:10:16;;;;;;;6.07;1.30;;;;;;;4.70;100.00;101228.72;4970417;28;20500;-73
2023/01/01 10:12:54;;;;;;;2.03;1.40;;;;;;;4.67;100.00;101231.97;4971735;28;20059;-73
2023/01/01 10:15:27;;;;;;;3.10;1.48;;;;;;;4.66;100.00;101244.72;4968237;28;20058;-73
2023/01/01 10:17:58;;;;;;;2.58;1.33;;;;;;;4.63;100.00;101247.97;4970587;28;20505;-73
2023/01/01 10:20:31;;;;;;;2.40;1.60;;;;;;;4.60;100.00;101245.19;4971683;28;20046;-74
2023/01/01 10:23:05;;;;;;;1.40;1.00;;;;;;;4.58;100.00;101255.38;4970266;28;20055;-73
2023/01/01 10:25:36;;;;;;;3.65;1.60;;;;;;;4.57;100.00;101258.72;4970183;28;20124;-74
2023/01/01 10:28:14;;;;;;;3.05;1.20;;;;;;;4.56;100.00;101258.66;4968992;28;20054;-73
2023/01/01 10:30:43;;;;;;;1.63;0.80;;;;;;;4.54;100.00;101265.34;4968897;28;20043;-74
2023/01/01 10:33:14;;;;;;;2.00;0.98;;;;;;;4.49;100.00;101277.88;4964878;28;20051;-74
2023/01/01 10:35:47;;;;;;;2.10;1.20;;;;;;;4.39;100.00;101291.75;4965263;28;20246;-74
2023/01/01 10:38:23;;;;;;;3.03;1.42;;;;;;;4.29;100.00;101294.56;4969768;28;20669;-73
2023/01/01 10:41:07;;;;;;;2.55;0.82;;;;;;;4.26;100.00;101286.69;4971236;28;20165;-73
2023/01/01 10:43:38;;;;;;;2.78;1.10;;;;;;;4.21;100.00;101295.72;4968986;28;20046;-73
2023/01/01 10:46:07;;;;;;;1.90;1.08;;;;;;;4.16;100.00;101292.88;4969543;28;20398;-73
2023/01/01 10:48:35;;;;;;;2.25;1.27;;;;;;;4.11;100.00;101295.94;4966621;28;20513;-73
2023/01/01 10:51:07;;;;;;;1.23;0.98;;;;;;;4.02;100.00;101301.34;4971097;28;20049;-73
2023/01/01 10:53:38;;;;;;;1.58;1.23;;;;;;;3.88;100.00;101290.22;4973570;28;20674;-73
2023/01/01 10:56:10;;;;;;;3.42;1.80;;;;;;;3.82;100.00;101305.19;4947778;28;20597;-73
2023/01/01 10:58:45;;;;;;;2.50;1.43;;;;;;;3.77;100.00;101310.00;4954298;28;20051;-73
2023/01/01 11:01:21;;;;;;;2.10;1.27;;;;;;;3.71;100.00;101311.25;4943210;28;20297;-73
2023/01/01 11:03:59;;;;;;;2.00;1.33;;;;;;;3.71;100.00;101313.81;4950458;28;20054;-73
2023/01/01 11:06:29;;;;;;;2.47;1.52;;;;;;;3.73;100.00;101317.38;4949286;28;20475;-73
2023/01/01 11:09:02;;;;;;;4.78;0.88;;;;;;;3.63;100.00;101321.00;4947878;28;20107;-73
2023/01/01 11:11:33;;;;;;;9.02;3.20;;;;;;;3.60;100.00;101322.47;4953406;28;20035;-72
2023/01/01 11:14:07;;;;;;;3.58;1.83;;;;;;;3.49;100.00;101309.84;4952794;28;20134;-72
2023/01/01 11:16:40;;;;;;;4.55;1.83;;;;;;;3.39;100.00;101317.72;4947156;28;20119;-73
2023/01/01 11:19:19;;;;;;;4.28;2.00;;;;;;;3.40;100.00;101324.59;4947613;28;20157;-72
2023/01/01 11:21:48;;;;;;;3.40;1.83;;;;;;;3.41;100.00;101326.34;4954929;28;20058;-73
2023/01/01 11:24:22;;;;;;;3.55;1.40;;;;;;;3.42;100.00;101333.25;4950886;28;20055;-73
2023/01/01 11:26:52;;;;;;;12.88;1.70;;;;;;;3.35;100.00;101331.06;4949611;28;20117;-74
2023/01/01 11:29:27;;;;;;;2.85;1.17;;;;;;;3.33;100.00;101335.19;4947714;28;20052;-73
2023/01/01 11:31:58;;;;;;;7.15;2.15;;;;;;;3.29;100.00;101335.75;4949656;28;20050;-73
2023/01/01 11:34:30;;;;;;;9.02;1.75;;;;;;;3.27;100.00;101337.31;4951410;28;20401;-72
2023/01/01 11:37:19;;;;;;;8.20;1.83;;;;;;;3.20;100.00;101324.91;4953228;28;20043;-73
2023/01/01 11:39:51;;;;;;;4.88;2.13;;;;;;;3.26;100.00;101345.78;4948119;28;20177;-74
2023/01/01 11:42:22;;;;;;;5.85;2.05;;;;;;;3.19;100.00;101339.38;4959614;28;20077;-73
2023/01/01 11:44:55;;;;;;;1.98;1.73;;;;;;;3.07;100.00;101333.38;4955381;28;20074;-73
2023/01/01 11:47:26;;;;;;;;;;;;;;;3.11;100.00;101333.72;4956606;28;20146;-73
2023/01/01 11:49:57;;;;;;;3.75;2.03;;;;;;;3.15;100.00;101337.38;4952606;28;19929;-73